createdAt,value
2023-02-20T00:01:05.267Z,8.40
2023-02-20T00:06:01.703Z,9.65
2023-02-20T00:10:58.180Z,9.52
2023-02-20T00:15:54.629Z,6.38
2023-02-20T00:20:51.059Z,8.50
2023-02-20T00:25:47.649Z,8.75
2023-02-20T00:30:44.120Z,11.27
2023-02-20T00:35:40.645Z,9.82
2023-02-20T00:40:37.076Z,11.52
2023-02-20T00:45:33.515Z,7.32
2023-02-20T00:50:29.947Z,10.32
2023-02-20T00:55:26.394Z,9.70
2023-02-20T01:00:26.380Z,7.85
2023-02-20T01:05:23.537Z,8.43
2023-02-20T01:10:20.409Z,9.07
2023-02-20T01:15:16.807Z,8.20
2023-02-20T01:20:13.257Z,6.20
2023-02-20T01:25:09.641Z,7.20
2023-02-20T01:30:07.271Z,6.75
2023-02-20T01:35:03.769Z,7.68
2023-02-20T01:40:00.300Z,8.95
2023-02-20T01:45:34.929Z,13.10
2023-02-20T01:50:42.259Z,5.95
2023-02-20T01:55:59.056Z,6.05
2023-02-20T02:00:58.809Z,9.93
2023-02-20T02:06:01.687Z,8.95
2023-02-20T02:11:27.709Z,8.13
2023-02-20T02:16:40.319Z,9.35
2023-02-20T02:21:42.448Z,9.95
2023-02-20T02:27:30.886Z,8.10
2023-02-20T02:33:11.601Z,9.73
2023-02-20T02:38:19.552Z,9.23
2023-02-20T02:43:25.133Z,9.10
2023-02-20T02:48:47.473Z,8.00
2023-02-20T02:54:11.322Z,10.60
2023-02-20T02:59:12.331Z,9.43
2023-02-20T03:04:12.305Z,10.57
2023-02-20T03:09:13.084Z,12.80
2023-02-20T03:14:53.170Z,10.90
2023-02-20T03:19:52.599Z,12.38
2023-02-20T03:24:57.883Z,10.65
2023-02-20T03:29:58.819Z,10.05
2023-02-20T03:35:16.278Z,11.55
2023-02-20T03:40:34.647Z,9.15
2023-02-20T03:45:32.786Z,9.38
2023-02-20T03:50:29.276Z,11.43
2023-02-20T03:55:26.260Z,13.95
2023-02-20T04:00:27.164Z,11.00
2023-02-20T04:05:26.326Z,9.13
2023-02-20T04:10:27.961Z,11.27
2023-02-20T04:15:25.641Z,12.63
2023-02-20T04:20:23.630Z,10.73
2023-02-20T04:25:36.128Z,10.32
2023-02-20T04:30:33.205Z,10.32
2023-02-20T04:35:29.762Z,12.25
2023-02-20T04:40:26.283Z,11.57
2023-02-20T04:45:25.785Z,11.35
2023-02-20T04:50:26.204Z,13.82
2023-02-20T04:55:22.642Z,14.20
2023-02-20T05:00:20.590Z,13.40
2023-02-20T05:05:23.773Z,11.95
2023-02-20T05:10:22.276Z,12.27
2023-02-20T05:15:19.673Z,13.57
2023-02-20T05:20:17.526Z,17.67
2023-02-20T05:25:15.372Z,16.25
2023-02-20T05:30:12.186Z,15.95
2023-02-20T05:35:08.738Z,16.45
2023-02-20T05:40:05.705Z,18.75
2023-02-20T05:45:04.317Z,15.18
2023-02-20T05:50:00.776Z,15.13
2023-02-20T05:54:57.218Z,17.10
2023-02-20T05:59:53.723Z,17.13
2023-02-20T06:04:50.410Z,17.75
2023-02-20T06:09:46.894Z,20.08
2023-02-20T06:14:43.261Z,18.33
2023-02-20T06:19:40.721Z,22.92
2023-02-20T06:24:37.165Z,19.92
2023-02-20T06:29:33.548Z,19.15
2023-02-20T06:34:33.228Z,25.02
2023-02-20T06:39:30.981Z,24.10
2023-02-20T06:44:27.442Z,18.75
2023-02-20T06:49:23.857Z,19.15
2023-02-20T06:54:22.158Z,23.92
2023-02-20T06:59:18.649Z,19.67
2023-02-20T07:04:17.071Z,22.13
2023-02-20T07:09:14.450Z,25.85
2023-02-20T07:14:10.864Z,24.70
2023-02-20T07:19:07.599Z,27.02
2023-02-20T07:24:04.558Z,22.33
2023-02-20T07:29:00.978Z,23.52
2023-02-20T07:33:58.130Z,24.55
2023-02-20T07:38:59.727Z,30.25
2023-02-20T07:43:56.392Z,25.83
2023-02-20T07:48:53.211Z,30.05
2023-02-20T07:53:51.164Z,27.13
2023-02-20T07:58:48.139Z,31.38
2023-02-20T08:03:44.837Z,26.58
2023-02-20T08:08:41.222Z,29.58
2023-02-20T08:13:38.473Z,36.78
2023-02-20T08:18:34.887Z,29.13
2023-02-20T08:23:31.315Z,30.02
2023-02-20T08:28:27.883Z,32.63
2023-02-20T08:33:24.333Z,39.65
2023-02-20T08:38:30.013Z,39.63
2023-02-20T08:43:28.012Z,30.77
2023-02-20T08:48:25.120Z,34.00
2023-02-20T08:53:21.683Z,38.38
2023-02-20T08:58:23.828Z,33.40
2023-02-20T09:03:20.299Z,41.95
2023-02-20T09:08:17.160Z,40.25
2023-02-20T09:13:14.343Z,36.78
2023-02-20T09:18:13.861Z,42.20
2023-02-20T09:23:10.776Z,43.33
2023-02-20T09:28:08.804Z,38.03
2023-02-20T09:33:05.304Z,35.65
2023-02-20T09:38:02.107Z,46.60
2023-02-20T09:43:29.633Z,36.97
2023-02-20T09:48:47.487Z,45.20
2023-02-20T09:53:50.752Z,41.30
2023-02-20T09:59:02.806Z,41.63
2023-02-20T10:04:11.221Z,41.58
2023-02-20T10:09:13.053Z,55.10
2023-02-20T10:14:24.672Z,31.90
2023-02-20T10:19:26.719Z,34.40
2023-02-20T10:24:49.344Z,40.72
2023-02-20T10:29:46.746Z,34.00
2023-02-20T10:34:53.867Z,33.03
2023-02-20T10:39:57.480Z,24.23
2023-02-20T10:45:03.583Z,26.30
2023-02-20T10:50:05.644Z,24.33
2023-02-20T10:55:26.309Z,26.80
2023-02-20T11:00:28.270Z,28.05
2023-02-20T11:05:32.139Z,23.98
2023-02-20T11:10:30.716Z,28.58
2023-02-20T11:15:30.648Z,20.73
2023-02-20T11:20:32.925Z,18.40
2023-02-20T11:25:36.067Z,17.13
2023-02-20T11:30:35.668Z,18.27
2023-02-20T11:35:35.353Z,20.23
2023-02-20T11:40:32.857Z,19.80
2023-02-20T11:45:29.610Z,15.85
2023-02-20T11:50:38.849Z,14.70
2023-02-20T11:55:35.532Z,14.60
2023-02-20T12:00:49.734Z,16.95
2023-02-20T12:05:48.157Z,13.38
2023-02-20T12:10:48.187Z,15.60
2023-02-20T12:15:54.943Z,14.85
2023-02-20T12:21:06.183Z,13.73
2023-02-20T12:26:30.403Z,11.95
2023-02-20T12:31:46.604Z,16.33
2023-02-20T12:36:47.178Z,15.32
2023-02-20T12:42:03.206Z,13.23
2023-02-20T12:47:14.919Z,11.20
2023-02-20T12:52:48.131Z,16.52
2023-02-20T12:58:13.604Z,11.33
2023-02-20T13:03:31.079Z,13.55
2023-02-20T13:08:33.424Z,13.10
2023-02-20T13:13:52.890Z,11.60
2023-02-20T13:19:12.835Z,9.98
2023-02-20T13:24:21.065Z,14.68
2023-02-20T13:29:27.437Z,15.68
2023-02-20T13:34:38.951Z,11.98
2023-02-20T13:39:38.005Z,16.63
2023-02-20T13:44:36.983Z,15.80
2023-02-20T13:49:51.388Z,9.43
2023-02-20T13:54:47.809Z,13.85
2023-02-20T13:59:44.414Z,13.13
2023-02-20T14:04:52.203Z,12.27
2023-02-20T14:10:00.280Z,10.73
2023-02-20T14:14:57.450Z,15.70
2023-02-20T14:20:08.464Z,13.25
2023-02-20T14:25:12.284Z,12.10
2023-02-20T14:30:14.433Z,17.70
2023-02-20T14:35:25.702Z,13.32
2023-02-20T14:40:37.054Z,11.88
2023-02-20T14:45:33.778Z,16.50
2023-02-20T14:50:35.746Z,14.60
2023-02-20T14:55:32.252Z,13.60
2023-02-20T15:00:39.081Z,13.10
2023-02-20T15:05:36.233Z,14.73
2023-02-20T15:10:37.370Z,15.85
2023-02-20T15:15:39.348Z,15.55
2023-02-20T15:20:40.224Z,14.38
2023-02-20T15:25:37.044Z,13.07
2023-02-20T15:30:33.949Z,16.38
2023-02-20T15:35:32.682Z,17.48
2023-02-20T15:40:34.128Z,19.23
2023-02-20T15:45:31.089Z,14.43
2023-02-20T15:50:27.517Z,19.75
2023-02-20T15:55:24.782Z,16.33
2023-02-20T16:00:25.891Z,18.25
2023-02-20T16:05:22.382Z,12.10
2023-02-20T16:10:24.490Z,15.63
2023-02-20T16:15:25.187Z,11.07
2023-02-20T16:20:27.819Z,13.10
2023-02-20T16:30:33.631Z,12.02
2023-02-20T16:35:30.584Z,13.90
2023-02-20T16:40:26.998Z,15.45
2023-02-20T16:45:23.735Z,13.20
2023-02-20T16:50:29.168Z,13.20
2023-02-20T16:55:28.025Z,9.10
2023-02-20T17:00:38.476Z,9.55
2023-02-20T17:05:41.286Z,12.07
2023-02-20T17:10:37.719Z,14.70
2023-02-20T17:15:36.202Z,10.15
2023-02-20T17:20:33.690Z,12.15
2023-02-20T17:25:30.067Z,7.40
2023-02-20T17:30:26.834Z,10.93
2023-02-20T17:35:23.356Z,7.68
2023-02-20T17:40:20.912Z,6.15
2023-02-20T17:45:17.515Z,7.78
2023-02-20T17:50:17.561Z,7.25
2023-02-20T17:55:19.268Z,7.30
2023-02-20T18:00:17.667Z,8.97
2023-02-20T18:05:14.078Z,8.00
2023-02-20T18:10:11.179Z,11.02
2023-02-20T18:15:08.153Z,10.95
2023-02-20T18:20:04.898Z,15.45
2023-02-20T18:25:01.274Z,15.75
2023-02-20T18:29:57.739Z,21.48
2023-02-20T18:34:54.110Z,15.35
2023-02-20T18:39:50.534Z,15.98
2023-02-20T18:44:48.524Z,17.92
2023-02-20T18:49:47.359Z,17.25
2023-02-20T18:54:43.870Z,18.90
2023-02-20T18:59:42.096Z,20.38
2023-02-20T19:04:38.486Z,23.67
2023-02-20T19:09:37.722Z,19.85
2023-02-20T19:14:35.152Z,27.55
2023-02-20T19:19:31.665Z,23.30
2023-02-20T19:24:28.177Z,17.90
2023-02-20T19:29:24.550Z,17.13
2023-02-20T19:34:20.932Z,14.93
2023-02-20T19:39:17.317Z,17.25
2023-02-20T19:44:15.936Z,14.00
2023-02-20T19:49:13.017Z,18.13
2023-02-20T19:54:09.614Z,18.65
2023-02-20T19:59:05.988Z,16.95
2023-02-20T20:04:02.604Z,16.65
2023-02-20T20:09:13.490Z,13.38
2023-02-20T20:14:13.368Z,14.65
2023-02-20T20:19:11.617Z,15.40
2023-02-20T20:24:10.926Z,10.25
2023-02-20T20:29:08.070Z,11.50
2023-02-20T20:34:06.208Z,10.38
2023-02-20T20:39:04.377Z,8.35
2023-02-20T20:44:06.312Z,9.88
2023-02-20T20:49:03.082Z,14.02
2023-02-20T20:53:59.733Z,15.60
2023-02-20T20:58:56.438Z,17.60
2023-02-20T21:03:53.158Z,8.27
2023-02-20T21:08:49.756Z,10.48
2023-02-20T21:13:48.827Z,12.30
2023-02-20T21:18:46.406Z,10.63
2023-02-20T21:23:45.183Z,15.35
2023-02-20T21:28:41.597Z,13.25
2023-02-20T21:33:38.019Z,9.23
2023-02-20T21:38:35.065Z,13.32
2023-02-20T21:43:49.894Z,14.00
2023-02-20T21:48:46.337Z,13.50
2023-02-20T21:53:42.764Z,10.93
2023-02-20T21:58:57.830Z,11.43
2023-02-20T22:03:54.210Z,9.43
2023-02-20T22:09:09.477Z,9.50
2023-02-20T22:14:24.769Z,10.52
2023-02-20T22:19:40.074Z,9.90
2023-02-20T22:24:55.752Z,9.75
2023-02-20T22:30:10.820Z,9.35
2023-02-20T22:35:26.352Z,8.98
2023-02-20T22:40:41.491Z,10.80
2023-02-20T22:45:56.555Z,16.75
2023-02-20T22:51:11.680Z,8.95
2023-02-20T22:56:34.731Z,7.90
2023-02-20T23:01:49.974Z,6.78
2023-02-20T23:07:04.916Z,11.05
2023-02-20T23:12:19.937Z,8.48
2023-02-20T23:17:37.504Z,5.13
2023-02-20T23:22:52.835Z,8.10
2023-02-20T23:28:08.520Z,6.57
2023-02-20T23:33:23.703Z,5.10
2023-02-20T23:38:38.881Z,5.55
2023-02-20T23:43:54.014Z,4.68
2023-02-20T23:49:09.626Z,8.63
2023-02-20T23:54:24.678Z,7.70
2023-02-20T23:59:39.869Z,8.05
